Time;durP1;ratioP1;P1;durP2;ratioP2;P2;SDS_P1;SDS_P2;PMS_P1;PMS_P2;Temp;Humidity;BMP_temperature;BMP_pressure;BME280_temperature;BME280_humidity;BME280_pressure;Samples;Min_cycle;Max_cycle;Signal;HPM_P1;HPM_P2
2023/09/08 00:02:25;;;;;;;14.40;7.55;;;17.70;76.50;;;;;;4896465;29;20437;-91
2023/09/08 00:04:53;;;;;;;12.07;6.95;;;17.70;76.60;;;;;;4876764;29;20044;-90
2023/09/08 00:07:20;;;;;;;11.13;7.03;;;17.80;76.50;;;;;;4866468;29;20076;-90
2023/09/08 00:09:47;;;;;;;14.10;7.10;;;17.70;76.60;;;;;;4881867;29;20040;-90
2023/09/08 00:12:15;;;;;;;15.37;7.60;;;17.60;76.90;;;;;;4893902;29;20049;-91
2023/09/08 00:14:42;;;;;;;13.23;7.93;;;17.50;77.10;;;;;;4880180;29;20049;-91
2023/09/08 00:17:09;;;;;;;14.07;7.63;;;17.50;77.20;;;;;;4897317;29;20051;-90
2023/09/08 00:19:36;;;;;;;14.38;7.63;;;17.50;77.30;;;;;;4887220;29;20564;-91
2023/09/08 00:22:05;;;;;;;13.63;7.28;;;17.40;77.40;;;;;;4891905;29;20057;-91
2023/09/08 00:24:33;;;;;;;13.13;7.23;;;17.40;77.60;;;;;;4880593;29;20413;-91
2023/09/08 00:27:01;;;;;;;11.48;7.05;;;17.30;77.70;;;;;;4892393;29;20097;-91
2023/09/08 00:29:28;;;;;;;13.45;7.90;;;17.30;77.80;;;;;;4881669;29;20048;-91
2023/09/08 00:31:55;;;;;;;12.27;7.15;;;17.30;77.70;;;;;;4881265;29;20045;-91
2023/09/08 00:34:22;;;;;;;15.32;7.80;;;17.30;77.70;;;;;;4866151;29;20044;-91
2023/09/08 00:36:50;;;;;;;13.30;6.90;;;17.30;77.60;;;;;;4872752;29;20040;-91
2023/09/08 00:39:18;;;;;;;12.15;7.20;;;17.30;77.60;;;;;;4884831;29;20049;-90
2023/09/08 00:41:45;;;;;;;14.43;8.18;;;17.20;77.70;;;;;;4865921;29;20139;-91
2023/09/08 00:44:12;;;;;;;13.77;7.65;;;17.20;77.70;;;;;;4881050;29;20135;-90
2023/09/08 00:46:40;;;;;;;11.20;7.45;;;17.20;77.60;;;;;;4894127;29;20150;-91
2023/09/08 00:49:08;;;;;;;13.23;7.20;;;17.30;77.40;;;;;;4893604;29;20131;-91
2023/09/08 00:51:37;;;;;;;10.95;6.40;;;17.20;77.60;;;;;;4869165;29;20414;-91
2023/09/08 00:54:06;;;;;;;12.30;6.70;;;17.20;77.70;;;;;;4898188;29;20068;-91
2023/09/08 00:56:36;;;;;;;14.52;7.05;;;17.10;77.90;;;;;;4884902;29;20049;-91
2023/09/08 00:59:04;;;;;;;15.20;7.00;;;17.10;77.90;;;;;;4899962;29;20049;-91
2023/09/08 01:01:31;;;;;;;11.60;6.67;;;17.10;78.10;;;;;;4884595;29;20052;-91
2023/09/08 01:03:58;;;;;;;13.13;7.13;;;17.10;78.10;;;;;;4900379;29;20143;-91
2023/09/08 01:06:27;;;;;;;13.15;7.47;;;17.10;78.10;;;;;;4884444;29;20049;-90
2023/09/08 01:08:55;;;;;;;13.15;7.63;;;17.00;78.40;;;;;;4899808;29;20044;-90
2023/09/08 01:11:23;;;;;;;14.65;7.63;;;17.00;78.60;;;;;;4869226;29;20049;-90
2023/09/08 01:13:50;;;;;;;12.50;7.30;;;17.00;78.70;;;;;;4899919;29;20040;-91
2023/09/08 01:16:17;;;;;;;12.60;7.10;;;17.00;78.80;;;;;;4899452;29;20040;-90
2023/09/08 01:18:48;;;;;;;15.57;7.45;;;17.00;79.00;;;;;;4884058;29;20048;-91
2023/09/08 01:22:02;;;;;;;14.10;7.10;;;17.00;78.90;;;;;;4899978;29;20045;-91
2023/09/08 01:24:56;;;;;;;12.15;7.05;;;17.00;78.70;;;;;;4879259;29;20132;-90
2023/09/08 01:27:25;;;;;;;14.93;7.57;;;17.00;78.50;;;;;;4899971;29;20406;-90
2023/09/08 01:29:54;;;;;;;12.77;7.13;;;17.00;78.40;;;;;;4896347;29;20457;-91
2023/09/08 01:32:21;;;;;;;11.90;7.10;;;17.00;78.50;;;;;;4896298;29;20073;-91
2023/09/08 01:34:49;;;;;;;12.75;7.22;;;17.00;78.60;;;;;;4875748;29;20087;-91
2023/09/08 01:37:16;;;;;;;12.30;7.00;;;16.90;78.50;;;;;;4898338;29;20041;-91
2023/09/08 01:39:43;;;;;;;11.20;7.10;;;17.00;78.50;;;;;;4883653;29;20124;-90
2023/09/08 01:42:10;;;;;;;12.70;6.97;;;16.90;78.50;;;;;;4899314;29;20048;-91
2023/09/08 01:44:37;;;;;;;12.85;7.18;;;17.00;78.50;;;;;;4883748;29;20052;-91
2023/09/08 01:47:04;;;;;;;16.02;7.72;;;16.90;78.70;;;;;;4879304;29;20051;-91
2023/09/08 01:49:31;;;;;;;12.35;7.55;;;16.80;78.70;;;;;;4891561;29;20101;-91
2023/09/08 01:51:58;;;;;;;14.07;7.87;;;16.80;79.00;;;;;;4883762;29;20049;-90
2023/09/08 01:54:25;;;;;;;11.80;7.13;;;16.80;79.10;;;;;;4898381;29;20045;-91
2023/09/08 01:56:52;;;;;;;16.13;7.60;;;16.70;79.20;;;;;;4893455;29;20043;-91
2023/09/08 01:59:19;;;;;;;14.27;7.43;;;16.70;79.40;;;;;;4868005;29;20099;-92
2023/09/08 02:01:46;;;;;;;12.13;7.13;;;16.60;79.30;;;;;;4883029;29;20044;-91
2023/09/08 02:04:13;;;;;;;13.70;6.67;;;16.70;79.30;;;;;;4883508;29;20127;-91
2023/09/08 02:06:40;;;;;;;13.48;7.55;;;16.60;79.40;;;;;;4897176;29;20048;-91
2023/09/08 02:09:11;;;;;;;14.02;7.22;;;16.60;79.60;;;;;;4898369;29;20093;-91
2023/09/08 02:11:38;;;;;;;13.73;8.35;;;16.50;79.70;;;;;;4896011;29;20471;-92
2023/09/08 02:14:06;;;;;;;14.23;7.65;;;16.50;79.80;;;;;;4893327;29;20069;-91
2023/09/08 02:16:33;;;;;;;12.47;6.43;;;16.50;79.90;;;;;;4898387;29;20056;-90
2023/09/08 02:19:00;;;;;;;12.25;7.32;;;16.50;79.70;;;;;;4893257;29;20123;-90
2023/09/08 02:21:27;;;;;;;12.32;7.43;;;16.50;79.80;;;;;;4880176;29;20400;-91
2023/09/08 02:23:55;;;;;;;13.07;7.47;;;16.50;79.80;;;;;;4881165;29;20112;-90
2023/09/08 02:26:22;;;;;;;13.73;7.90;;;16.40;80.00;;;;;;4883361;29;20044;-90
2023/09/08 02:28:49;;;;;;;13.93;7.80;;;16.50;80.10;;;;;;4867685;29;20518;-91
2023/09/08 02:31:18;;;;;;;12.63;7.53;;;16.40;80.10;;;;;;4890851;29;20061;-91
2023/09/08 02:33:45;;;;;;;15.70;7.28;;;16.30;80.20;;;;;;4849300;29;20055;-91
2023/09/08 02:36:12;;;;;;;12.07;7.57;;;16.30;80.10;;;;;;4864170;29;20041;-90
2023/09/08 02:38:40;;;;;;;13.85;8.35;;;16.40;79.90;;;;;;4864435;29;20518;-90
2023/09/08 02:41:08;;;;;;;13.20;6.63;;;16.40;79.70;;;;;;4863991;29;20041;-91
2023/09/08 02:43:35;;;;;;;11.70;7.07;;;16.30;79.90;;;;;;4848999;29;20055;-90
2023/09/08 02:46:02;;;;;;;13.70;7.68;;;16.40;79.80;;;;;;4857526;29;20127;-91
2023/09/08 02:48:31;;;;;;;15.55;8.18;;;16.30;79.60;;;;;;4864253;29;20403;-91
2023/09/08 02:50:58;;;;;;;14.82;7.50;;;16.40;79.70;;;;;;4861210;29;20041;-91
2023/09/08 02:53:28;;;;;;;13.87;7.33;;;16.40;79.60;;;;;;4863199;29;20041;-91
2023/09/08 02:55:56;;;;;;;15.63;7.25;;;16.40;79.40;;;;;;4864196;29;20052;-90
2023/09/08 02:58:23;;;;;;;13.40;8.00;;;16.50;79.50;;;;;;4848787;29;20041;-91
2023/09/08 03:00:51;;;;;;;13.05;7.57;;;16.40;79.40;;;;;;4864174;29;20049;-91
2023/09/08 03:03:19;;;;;;;13.60;7.65;;;16.30;79.60;;;;;;4848322;29;20141;-90
2023/09/08 03:05:46;;;;;;;12.47;7.23;;;16.30;79.80;;;;;;4879291;29;20128;-91
2023/09/08 03:08:14;;;;;;;12.98;7.65;;;16.20;79.90;;;;;;4879944;29;20037;-91
2023/09/08 03:10:41;;;;;;;12.88;6.78;;;16.20;79.90;;;;;;4878819;29;20495;-91
2023/09/08 03:13:08;;;;;;;14.52;7.82;;;16.20;80.10;;;;;;4865385;29;20106;-93
2023/09/08 03:15:36;;;;;;;13.07;7.28;;;16.20;80.10;;;;;;4879630;29;20139;-93
2023/09/08 03:18:03;;;;;;;12.30;7.33;;;16.20;80.00;;;;;;4879701;29;20040;-94
2023/09/08 03:20:31;;;;;;;14.07;7.38;;;16.20;80.00;;;;;;4879555;29;20053;-94
2023/09/08 03:22:58;;;;;;;11.95;7.07;;;16.20;80.00;;;;;;4864246;29;20049;-92
2023/09/08 03:25:26;;;;;;;13.98;7.80;;;16.20;79.80;;;;;;4864443;29;20059;-93
2023/09/08 03:27:52;;;;;;;13.88;8.10;;;16.20;79.80;;;;;;4863826;29;20530;-93
2023/09/08 03:30:20;;;;;;;11.90;7.23;;;16.30;79.70;;;;;;4863941;29;20101;-93
2023/09/08 03:32:46;;;;;;;13.25;7.45;;;16.20;79.80;;;;;;4882302;29;20063;-93
2023/09/08 03:35:14;;;;;;;12.25;7.10;;;16.20;79.90;;;;;;4882105;29;20101;-93
2023/09/08 03:37:42;;;;;;;12.98;7.32;;;16.10;80.00;;;;;;4883063;29;20059;-90
2023/09/08 03:40:09;;;;;;;12.90;7.78;;;16.10;80.00;;;;;;4882665;29;20040;-90
2023/09/08 03:42:36;;;;;;;12.00;7.10;;;16.10;80.00;;;;;;4882369;29;20470;-90
2023/09/08 03:45:04;;;;;;;14.30;7.95;;;16.10;80.10;;;;;;4897934;29;20072;-90
2023/09/08 03:47:31;;;;;;;13.65;8.18;;;16.10;80.30;;;;;;4882303;29;20539;-91
2023/09/08 03:49:58;;;;;;;12.80;7.10;;;16.00;80.60;;;;;;4882215;29;20049;-90
2023/09/08 03:52:26;;;;;;;14.55;8.25;;;16.00;80.80;;;;;;4882300;29;20106;-91
2023/09/08 03:54:53;;;;;;;14.23;8.17;;;15.90;80.90;;;;;;4882212;29;20040;-91
2023/09/08 03:57:20;;;;;;;12.35;7.60;;;15.90;80.90;;;;;;4897626;29;20052;-89
2023/09/08 03:59:47;;;;;;;12.70;7.68;;;15.80;81.00;;;;;;4881784;29;20453;-91
2023/09/08 04:02:14;;;;;;;15.18;8.00;;;15.80;81.20;;;;;;4897628;29;20048;-92
2023/09/08 04:04:41;;;;;;;13.45;7.80;;;15.80;81.20;;;;;;4882534;29;20052;-93
2023/09/08 04:07:08;;;;;;;14.30;8.03;;;15.80;81.30;;;;;;4897538;29;20056;-91
2023/09/08 04:09:35;;;;;;;14.30;8.02;;;15.70;81.30;;;;;;4866557;29;20465;-91
2023/09/08 04:12:02;;;;;;;12.27;7.20;;;15.70;81.20;;;;;;4882256;29;20408;-91
2023/09/08 04:14:31;;;;;;;15.40;7.38;;;15.70;81.30;;;;;;4866683;29;20140;-91
2023/09/08 04:16:58;;;;;;;11.68;7.05;;;15.60;81.40;;;;;;4874482;29;20053;-91
2023/09/08 04:19:25;;;;;;;14.47;7.00;;;15.60;81.40;;;;;;4878674;29;20454;-88
2023/09/08 04:21:52;;;;;;;11.55;7.10;;;15.60;81.40;;;;;;4875025;29;20529;-89
2023/09/08 04:24:20;;;;;;;13.55;7.60;;;15.60;81.30;;;;;;4897806;29;20168;-89
2023/09/08 04:26:47;;;;;;;14.02;7.55;;;15.60;81.30;;;;;;4885214;29;20048;-89
2023/09/08 04:29:14;;;;;;;12.45;7.10;;;15.60;81.30;;;;;;4885276;29;20056;-88
2023/09/08 04:31:42;;;;;;;11.27;6.30;;;15.70;81.30;;;;;;4873935;29;20076;-89
2023/09/08 04:34:09;;;;;;;11.52;6.82;;;15.60;81.30;;;;;;4885281;29;20053;-90
2023/09/08 04:36:36;;;;;;;13.18;7.13;;;15.70;81.30;;;;;;4901076;29;20048;-91
2023/09/08 04:39:03;;;;;;;13.23;6.80;;;15.70;81.10;;;;;;4885347;29;20048;-92
2023/09/08 04:41:30;;;;;;;12.02;6.57;;;15.70;81.20;;;;;;4885007;29;20101;-91
2023/09/08 04:43:58;;;;;;;12.47;6.30;;;15.70;81.10;;;;;;4885630;29;20059;-92
2023/09/08 04:46:25;;;;;;;13.25;6.57;;;15.80;81.10;;;;;;4900648;29;20053;-92
2023/09/08 04:48:52;;;;;;;10.93;6.53;;;15.80;80.90;;;;;;4885215;29;20044;-91
2023/09/08 04:51:21;;;;;;;13.45;6.57;;;15.90;80.80;;;;;;4885996;29;20041;-91
2023/09/08 04:53:49;;;;;;;10.57;5.90;;;15.90;80.70;;;;;;4885217;29;20143;-90
2023/09/08 04:56:16;;;;;;;11.00;5.73;;;15.90;80.70;;;;;;4885253;29;20127;-90
2023/09/08 04:58:43;;;;;;;11.68;6.20;;;16.00;80.40;;;;;;4885170;29;20101;-92
2023/09/08 05:01:11;;;;;;;11.55;5.95;;;16.00;80.40;;;;;;4884977;29;20071;-90
2023/09/08 05:03:39;;;;;;;10.35;5.53;;;16.00;80.30;;;;;;4885261;29;20495;-91
2023/09/08 05:06:07;;;;;;;11.32;5.65;;;16.00;80.20;;;;;;4900546;29;20049;-92
2023/09/08 05:08:34;;;;;;;11.10;6.47;;;16.10;80.10;;;;;;4884919;29;20070;-91
2023/09/08 05:11:02;;;;;;;10.10;6.03;;;16.10;80.00;;;;;;4900282;29;20127;-91
2023/09/08 05:13:30;;;;;;;11.77;6.25;;;16.10;79.90;;;;;;4884858;29;20541;-91
2023/09/08 05:16:10;;;;;;;11.70;6.00;;;16.10;79.80;;;;;;4884431;29;20125;-91
2023/09/08 05:18:41;;;;;;;12.40;5.72;;;16.20;79.80;;;;;;4884545;29;20040;-91
2023/09/08 05:21:09;;;;;;;11.17;6.37;;;16.20;79.40;;;;;;4884851;29;20040;-91
2023/09/08 05:23:36;;;;;;;11.93;6.20;;;16.30;79.70;;;;;;4900247;29;20043;-92
2023/09/08 05:26:03;;;;;;;11.02;6.00;;;16.30;79.50;;;;;;4884523;29;20048;-91
2023/09/08 05:28:30;;;;;;;11.60;6.25;;;16.30;79.30;;;;;;4884384;29;20052;-91
2023/09/08 05:30:58;;;;;;;12.27;6.45;;;16.30;79.50;;;;;;4884322;29;20147;-91
2023/09/08 05:33:25;;;;;;;10.87;5.90;;;16.30;79.50;;;;;;4884737;29;20101;-91
2023/09/08 05:35:52;;;;;;;11.82;6.50;;;16.30;79.30;;;;;;4899417;29;20044;-91
2023/09/08 05:38:19;;;;;;;12.32;6.40;;;16.40;79.20;;;;;;4884106;29;20052;-91
2023/09/08 05:40:47;;;;;;;10.95;6.07;;;16.40;79.30;;;;;;4884125;29;20056;-91
2023/09/08 05:43:14;;;;;;;11.93;6.32;;;16.40;79.20;;;;;;4884337;29;20045;-91
2023/09/08 05:45:42;;;;;;;11.23;6.03;;;16.50;79.30;;;;;;4899730;29;20131;-90
2023/09/08 05:48:09;;;;;;;11.25;5.93;;;16.50;78.80;;;;;;4884066;29;20218;-90
2023/09/08 05:50:37;;;;;;;10.32;5.85;;;16.50;78.80;;;;;;4899658;29;20459;-90
2023/09/08 05:53:06;;;;;;;11.40;6.10;;;16.60;78.70;;;;;;4883947;29;20040;-91
2023/09/08 05:55:33;;;;;;;11.98;5.90;;;16.70;78.40;;;;;;4883738;29;20051;-90
2023/09/08 05:58:00;;;;;;;9.87;5.23;;;16.70;78.40;;;;;;4884068;29;20048;-90
2023/09/08 06:00:27;;;;;;;10.68;6.05;;;16.80;78.20;;;;;;4884006;29;20044;-90
2023/09/08 06:02:54;;;;;;;10.18;5.30;;;16.90;78.10;;;;;;4883906;29;20112;-90
2023/09/08 06:05:21;;;;;;;11.18;5.53;;;17.00;77.80;;;;;;4899376;29;20059;-90
2023/09/08 06:07:48;;;;;;;12.05;5.88;;;17.10;77.30;;;;;;4883851;29;20419;-91
2023/09/08 06:10:32;;;;;;;12.20;6.20;;;17.30;77.10;;;;;;4897047;29;20414;-90
2023/09/08 06:13:01;;;;;;;12.02;5.68;;;17.40;76.80;;;;;;4883704;29;20045;-92
2023/09/08 06:15:28;;;;;;;10.82;5.57;;;17.50;76.70;;;;;;4883380;29;20571;-90
2023/09/08 06:17:56;;;;;;;12.15;6.28;;;17.70;76.60;;;;;;4883665;29;20372;-91
2023/09/08 06:20:24;;;;;;;11.00;5.60;;;17.80;76.30;;;;;;4899234;29;20081;-91
2023/09/08 06:22:52;;;;;;;10.43;5.37;;;18.00;75.80;;;;;;4883402;29;20053;-91
2023/09/08 06:25:19;;;;;;;9.38;5.03;;;18.00;75.60;;;;;;4899214;29;20514;-91
2023/09/08 06:27:47;;;;;;;9.82;5.55;;;18.10;75.60;;;;;;4898781;29;20053;-91
2023/09/08 06:30:16;;;;;;;9.90;5.47;;;18.10;75.50;;;;;;4883456;29;20112;-91
2023/09/08 06:32:43;;;;;;;13.25;5.85;;;18.30;75.30;;;;;;4898302;29;20061;-91
2023/09/08 06:35:11;;;;;;;9.80;5.57;;;18.50;74.90;;;;;;4883297;29;20051;-91
2023/09/08 06:37:39;;;;;;;10.68;5.45;;;18.50;74.40;;;;;;4883353;29;20041;-91
2023/09/08 06:40:07;;;;;;;10.73;5.75;;;18.60;74.60;;;;;;4883037;29;20466;-91
2023/09/08 06:42:34;;;;;;;10.25;5.63;;;18.70;73.50;;;;;;4867672;29;20053;-91
2023/09/08 06:45:13;;;;;;;10.88;5.15;;;18.80;73.90;;;;;;4882737;29;20065;-91
2023/09/08 06:47:40;;;;;;;9.50;5.53;;;19.00;74.20;;;;;;4882460;29;20058;-91
2023/09/08 06:50:08;;;;;;;9.32;5.07;;;19.10;73.80;;;;;;4883283;29;20080;-91
2023/09/08 06:52:35;;;;;;;11.48;5.65;;;19.10;73.00;;;;;;4898377;29;20396;-91
2023/09/08 06:55:03;;;;;;;10.43;5.50;;;19.30;73.50;;;;;;4882908;29;20410;-90
2023/09/08 06:57:30;;;;;;;11.30;6.10;;;19.40;72.90;;;;;;4882575;29;20392;-91
2023/09/08 06:59:57;;;;;;;8.80;5.10;;;19.50;72.90;;;;;;4882764;29;20049;-91
2023/09/08 07:02:24;;;;;;;10.85;5.60;;;19.60;72.00;;;;;;4883045;29;20040;-91
2023/09/08 07:04:51;;;;;;;10.13;5.78;;;19.60;71.80;;;;;;4867359;29;20045;-91
2023/09/08 07:07:20;;;;;;;11.65;5.60;;;19.80;71.80;;;;;;4898529;29;20059;-92
2023/09/08 07:09:48;;;;;;;10.63;5.43;;;19.80;71.60;;;;;;4882703;29;20132;-91
2023/09/08 07:12:15;;;;;;;10.23;5.03;;;20.00;72.00;;;;;;4898021;29;20049;-91
2023/09/08 07:14:42;;;;;;;9.30;5.10;;;20.10;71.40;;;;;;4882820;29;20042;-91
2023/09/08 07:17:10;;;;;;;9.60;5.18;;;20.20;71.00;;;;;;4898196;29;20100;-91
2023/09/08 07:19:37;;;;;;;9.48;5.18;;;20.30;71.10;;;;;;4882660;29;20044;-91
2023/09/08 07:22:06;;;;;;;12.10;5.25;;;20.50;71.60;;;;;;4882510;29;20457;-90
2023/09/08 07:24:33;;;;;;;12.53;5.10;;;20.60;70.90;;;;;;4882359;29;20559;-91
2023/09/08 07:27:01;;;;;;;13.52;5.53;;;20.60;70.50;;;;;;4882254;29;20056;-91
2023/09/08 07:29:29;;;;;;;12.77;5.32;;;20.80;70.00;;;;;;4867226;29;20059;-92
2023/09/08 07:31:56;;;;;;;10.50;4.93;;;20.90;70.60;;;;;;4882325;29;20057;-91
2023/09/08 07:34:23;;;;;;;13.05;5.43;;;21.10;70.50;;;;;;4882467;29;20059;-91
2023/09/08 07:36:51;;;;;;;9.40;4.77;;;21.10;71.00;;;;;;4897843;29;20452;-91
2023/09/08 07:39:18;;;;;;;13.05;5.30;;;21.30;70.10;;;;;;4882261;29;20139;-91
2023/09/08 07:41:45;;;;;;;10.68;5.57;;;21.40;69.10;;;;;;4882460;29;20518;-91
2023/09/08 07:44:13;;;;;;;11.40;5.80;;;21.50;70.40;;;;;;4897878;29;20068;-92
2023/09/08 07:46:40;;;;;;;9.82;5.20;;;21.60;71.30;;;;;;4882629;29;20051;-92
2023/09/08 07:49:07;;;;;;;10.90;5.70;;;21.70;69.40;;;;;;4882356;29;20052;-92
2023/09/08 07:51:34;;;;;;;13.10;5.70;;;21.80;68.80;;;;;;4897595;29;20056;-91
2023/09/08 07:54:03;;;;;;;10.82;4.80;;;21.90;69.10;;;;;;4882271;29;20095;-91
2023/09/08 07:56:30;;;;;;;9.32;4.93;;;22.00;68.10;;;;;;4882090;29;20049;-91
2023/09/08 07:58:57;;;;;;;10.77;5.47;;;22.10;68.30;;;;;;4883330;29;20085;-91
2023/09/08 08:01:25;;;;;;;9.33;4.87;;;22.20;68.10;;;;;;4870548;29;20090;-91
2023/09/08 08:03:52;;;;;;;11.05;4.70;;;22.30;68.40;;;;;;4886029;29;20498;-91
2023/09/08 08:06:19;;;;;;;10.48;5.00;;;22.30;65.90;;;;;;4901422;29;20055;-92
2023/09/08 08:08:46;;;;;;;11.05;5.32;;;22.50;67.80;;;;;;4885659;29;20061;-91
2023/09/08 08:11:17;;;;;;;9.25;5.18;;;22.60;66.70;;;;;;4885889;29;20049;-91
2023/09/08 08:13:45;;;;;;;11.23;5.00;;;22.60;66.70;;;;;;4870065;29;20059;-91
2023/09/08 08:16:12;;;;;;;10.40;4.90;;;22.70;66.00;;;;;;4900991;29;20052;-91
2023/09/08 08:18:40;;;;;;;10.82;4.97;;;22.80;66.20;;;;;;4885737;29;20138;-92
2023/09/08 08:21:07;;;;;;;10.18;4.70;;;22.90;65.60;;;;;;4900910;29;20117;-92
2023/09/08 08:23:36;;;;;;;10.45;4.20;;;23.00;64.80;;;;;;4885793;29;20054;-92
2023/09/08 08:26:03;;;;;;;9.03;4.60;;;23.10;64.20;;;;;;4901064;29;20044;-91
2023/09/08 08:28:30;;;;;;;9.15;4.50;;;23.10;64.10;;;;;;4885794;29;20140;-92
2023/09/08 08:30:57;;;;;;;9.98;4.38;;;23.20;63.70;;;;;;4885450;29;20422;-92
2023/09/08 08:33:25;;;;;;;9.20;4.57;;;23.20;62.60;;;;;;4885594;29;20511;-92
2023/09/08 08:35:53;;;;;;;8.52;4.00;;;23.30;61.20;;;;;;4900731;29;20140;-92
2023/09/08 08:38:20;;;;;;;10.43;4.90;;;23.30;60.10;;;;;;4885146;29;20056;-91
2023/09/08 08:40:47;;;;;;;8.32;4.47;;;23.40;61.60;;;;;;4885171;29;20045;-92
2023/09/08 08:43:15;;;;;;;7.60;3.75;;;23.40;61.50;;;;;;4885426;29;20511;-93
2023/09/08 08:45:44;;;;;;;8.02;4.47;;;23.50;59.90;;;;;;4885541;29;20069;-92
2023/09/08 08:48:14;;;;;;;9.45;4.22;;;23.50;58.80;;;;;;4900992;29;20058;-91
2023/09/08 08:50:42;;;;;;;8.03;3.93;;;23.50;57.20;;;;;;4885373;29;20087;-90
2023/09/08 08:53:12;;;;;;;10.60;4.72;;;23.50;57.20;;;;;;4885183;29;20090;-91
2023/09/08 08:55:40;;;;;;;10.15;4.57;;;23.60;58.10;;;;;;4900476;29;20052;-91
2023/09/08 08:58:07;;;;;;;9.73;4.57;;;23.70;58.40;;;;;;4884730;29;20055;-90
2023/09/08 09:00:39;;;;;;;10.77;4.38;;;23.70;58.10;;;;;;4884736;29;20055;-91
2023/09/08 09:03:07;;;;;;;11.13;4.60;;;23.70;59.90;;;;;;4885027;29;20566;-91
2023/09/08 09:05:43;;;;;;;12.45;4.75;;;23.80;58.40;;;;;;4884877;29;20059;-91
2023/09/08 09:08:17;;;;;;;12.35;4.78;;;23.90;58.00;;;;;;4885324;29;20048;-91
2023/09/08 09:10:44;;;;;;;11.35;4.70;;;24.00;57.10;;;;;;4883941;29;20053;-91
2023/09/08 09:13:11;;;;;;;12.18;4.43;;;24.10;57.80;;;;;;4884916;29;20531;-91
2023/09/08 09:15:38;;;;;;;8.87;4.50;;;24.10;56.70;;;;;;4884667;29;20045;-91
2023/09/08 09:18:07;;;;;;;10.63;4.90;;;24.10;57.00;;;;;;4884826;29;20048;-91
2023/09/08 09:20:35;;;;;;;17.50;4.93;;;24.10;56.70;;;;;;4884395;29;20053;-92
2023/09/08 09:23:03;;;;;;;13.00;4.75;;;24.30;56.50;;;;;;4884277;29;20049;-91
2023/09/08 09:25:31;;;;;;;10.73;4.93;;;24.30;56.90;;;;;;4900058;29;20036;-92
2023/09/08 09:28:01;;;;;;;10.00;4.67;;;24.30;56.30;;;;;;4868783;29;20053;-91
2023/09/08 09:30:50;;;;;;;11.85;4.85;;;24.30;57.30;;;;;;4884192;29;20056;-92
2023/09/08 09:33:18;;;;;;;9.52;4.55;;;24.40;57.20;;;;;;4884485;29;20048;-91
2023/09/08 09:35:48;;;;;;;11.88;4.63;;;24.50;56.00;;;;;;4884289;29;20406;-91
2023/09/08 09:38:15;;;;;;;12.43;4.45;;;24.60;55.70;;;;;;4899670;29;20048;-91
2023/09/08 09:40:42;;;;;;;11.67;4.23;;;24.50;54.40;;;;;;4884438;29;20570;-90
2023/09/08 09:43:11;;;;;;;9.25;3.95;;;24.50;56.60;;;;;;4899646;29;20052;-90
2023/09/08 09:45:40;;;;;;;9.02;4.60;;;24.50;54.70;;;;;;4884307;29;20048;-91
2023/09/08 09:48:08;;;;;;;8.85;4.22;;;24.60;55.10;;;;;;4899779;29;20055;-91
2023/09/08 09:50:40;;;;;;;11.20;4.07;;;24.60;56.80;;;;;;4883988;29;20084;-91
2023/09/08 09:53:10;;;;;;;13.37;4.17;;;24.60;53.30;;;;;;4884115;29;20040;-91
2023/09/08 09:55:39;;;;;;;8.55;3.85;;;24.60;52.80;;;;;;4883929;29;20053;-91
2023/09/08 09:58:10;;;;;;;8.77;3.72;;;24.60;53.30;;;;;;4883784;29;20110;-90
2023/09/08 10:00:40;;;;;;;10.27;4.00;;;24.60;52.80;;;;;;4883875;29;20148;-92
2023/09/08 10:03:08;;;;;;;10.52;4.28;;;24.60;53.20;;;;;;4899353;29;20127;-91
2023/09/08 10:05:36;;;;;;;8.57;4.20;;;24.80;53.00;;;;;;4884055;29;20048;-90
2023/09/08 10:08:04;;;;;;;10.93;4.70;;;24.80;53.00;;;;;;4883496;29;20464;-91
2023/09/08 10:10:32;;;;;;;10.63;4.55;;;24.90;52.90;;;;;;4899379;29;20049;-90
2023/09/08 10:13:05;;;;;;;8.90;4.30;;;24.90;53.80;;;;;;4883657;29;20049;-90
2023/09/08 10:15:33;;;;;;;9.57;4.53;;;25.00;53.70;;;;;;4883545;29;20482;-91
2023/09/08 10:18:04;;;;;;;9.57;4.27;;;25.10;55.20;;;;;;4868086;29;20081;-91
2023/09/08 10:20:33;;;;;;;9.50;4.45;;;25.10;54.70;;;;;;4899216;29;20048;-91
2023/09/08 10:23:22;;;;;;;9.98;4.57;;;25.10;53.80;;;;;;4883352;29;20112;-91
2023/09/08 10:25:54;;;;;;;11.23;4.68;;;25.10;53.90;;;;;;4883468;29;20049;-92
2023/09/08 10:28:25;;;;;;;11.23;4.93;;;25.20;54.20;;;;;;4898983;29;20053;-90
2023/09/08 10:30:53;;;;;;;9.80;4.37;;;25.10;54.70;;;;;;4883348;29;20080;-91
2023/09/08 10:33:23;;;;;;;9.90;4.70;;;25.20;57.50;;;;;;4883288;29;20048;-90
2023/09/08 10:35:51;;;;;;;11.32;4.93;;;25.20;54.50;;;;;;4899065;29;20056;-89
2023/09/08 10:38:26;;;;;;;10.02;4.85;;;25.30;53.70;;;;;;4883163;29;20044;-90
2023/09/08 10:41:14;;;;;;;11.30;4.72;;;25.30;54.30;;;;;;4897948;29;20045;-88
2023/09/08 10:43:43;;;;;;;12.00;4.57;;;25.40;55.30;;;;;;4889395;29;20529;-90
2023/09/08 10:46:20;;;;;;;9.70;4.60;;;25.50;54.30;;;;;;4866536;29;20052;-89
2023/09/08 10:48:47;;;;;;;10.98;5.03;;;25.40;54.10;;;;;;4894875;29;20109;-88
2023/09/08 10:51:17;;;;;;;12.77;5.28;;;25.50;55.70;;;;;;4894147;29;20052;-89
2023/09/08 10:53:48;;;;;;;10.93;4.95;;;25.60;54.50;;;;;;4881688;29;20055;-88
2023/09/08 10:56:16;;;;;;;10.07;4.80;;;25.60;53.40;;;;;;4897738;29;20063;-89
2023/09/08 10:58:49;;;;;;;9.43;4.55;;;25.60;55.80;;;;;;4897339;29;20049;-88
2023/09/08 11:01:27;;;;;;;11.13;5.40;;;25.80;54.00;;;;;;4879849;29;20044;-89
2023/09/08 11:03:54;;;;;;;10.77;5.10;;;25.80;55.30;;;;;;4875064;29;20048;-88
2023/09/08 11:06:22;;;;;;;11.65;4.90;;;25.80;53.20;;;;;;4881703;29;20131;-89
2023/09/08 11:08:55;;;;;;;9.33;4.43;;;25.90;54.10;;;;;;4865953;29;20048;-88
2023/09/08 11:11:23;;;;;;;9.30;5.13;;;25.80;53.20;;;;;;4895861;29;20051;-88
2023/09/08 11:13:50;;;;;;;7.90;4.60;;;25.80;52.00;;;;;;4882042;29;20044;-88
2023/09/08 11:16:21;;;;;;;9.40;4.40;;;25.90;53.30;;;;;;4897079;29;20093;-88
2023/09/08 11:18:51;;;;;;;8.57;4.22;;;25.90;52.50;;;;;;4896978;29;20586;-88
2023/09/08 11:21:18;;;;;;;9.87;5.07;;;25.90;52.60;;;;;;4897790;29;20403;-88
2023/09/08 11:23:45;;;;;;;10.55;4.43;;;25.90;52.10;;;;;;4887771;29;20398;-89
2023/09/08 11:26:13;;;;;;;9.63;4.78;;;26.00;51.00;;;;;;4897107;29;20529;-89
2023/09/08 11:28:41;;;;;;;8.70;4.18;;;25.80;50.80;;;;;;4881363;29;20063;-89
2023/09/08 11:31:12;;;;;;;10.63;4.10;;;25.90;51.80;;;;;;4896527;29;20061;-88
2023/09/08 11:33:41;;;;;;;9.70;4.37;;;26.10;53.60;;;;;;4880457;29;20076;-88
2023/09/08 11:36:14;;;;;;;11.38;4.70;;;26.30;52.20;;;;;;4881014;29;20071;-88
2023/09/08 11:38:45;;;;;;;9.50;5.38;;;26.30;52.10;;;;;;4897152;29;20044;-88
2023/09/08 11:41:12;;;;;;;9.77;5.38;;;26.40;52.70;;;;;;4881564;29;20053;-88
2023/09/08 11:43:39;;;;;;;9.73;4.97;;;26.40;52.60;;;;;;4878276;29;20045;-86
2023/09/08 11:46:07;;;;;;;10.67;5.00;;;26.50;52.90;;;;;;4896219;29;20040;-87
2023/09/08 11:48:35;;;;;;;11.27;5.70;;;26.50;53.90;;;;;;4895164;29;20064;-88
2023/09/08 11:51:02;;;;;;;11.15;5.25;;;26.50;52.70;;;;;;4881040;29;20444;-88
2023/09/08 11:53:31;;;;;;;11.45;5.15;;;26.50;52.40;;;;;;4885870;29;20048;-88
2023/09/08 11:55:59;;;;;;;10.07;5.30;;;26.60;51.90;;;;;;4896466;29;20048;-88
2023/09/08 11:58:26;;;;;;;9.73;5.13;;;26.70;53.30;;;;;;4893903;29;20036;-88
2023/09/08 12:00:53;;;;;;;11.35;5.57;;;26.80;52.50;;;;;;4896266;29;20392;-89
2023/09/08 12:03:20;;;;;;;9.93;4.93;;;26.70;51.90;;;;;;4895305;29;20045;-88
2023/09/08 12:05:51;;;;;;;9.88;4.93;;;26.70;50.90;;;;;;4865004;29;20048;-87
2023/09/08 12:08:19;;;;;;;10.30;5.50;;;26.80;52.30;;;;;;4882500;29;20049;-89
2023/09/08 12:10:46;;;;;;;9.80;5.40;;;26.90;52.60;;;;;;4865223;29;20088;-88
2023/09/08 12:13:21;;;;;;;12.27;5.57;;;26.90;52.60;;;;;;4897446;29;20041;-87
2023/09/08 12:15:48;;;;;;;13.32;5.47;;;26.90;52.30;;;;;;4876243;29;20135;-88
2023/09/08 12:18:15;;;;;;;9.25;4.97;;;26.90;53.40;;;;;;4895972;29;20518;-88
2023/09/08 12:20:43;;;;;;;10.23;5.18;;;27.10;52.80;;;;;;4880945;29;20048;-88
2023/09/08 12:23:19;;;;;;;9.20;4.63;;;27.10;52.70;;;;;;4895818;29;20052;-88
2023/09/08 12:25:51;;;;;;;9.13;4.15;;;27.10;51.70;;;;;;4880914;29;20033;-88
2023/09/08 12:28:22;;;;;;;9.40;5.30;;;27.10;49.90;;;;;;4895951;29;20049;-88
2023/09/08 12:30:50;;;;;;;9.98;4.68;;;27.10;49.70;;;;;;4877325;29;20095;-88
2023/09/08 12:33:19;;;;;;;8.82;4.90;;;27.00;51.00;;;;;;4876331;29;20049;-88
2023/09/08 12:35:48;;;;;;;8.07;4.60;;;27.10;50.20;;;;;;4867202;29;20140;-87
2023/09/08 12:38:15;;;;;;;8.13;4.38;;;27.10;50.90;;;;;;4861767;29;20064;-88
2023/09/08 12:40:42;;;;;;;11.23;4.88;;;27.10;50.80;;;;;;4877213;29;20110;-88
2023/09/08 12:43:09;;;;;;;9.45;4.55;;;27.10;51.10;;;;;;4877470;29;20132;-87
2023/09/08 12:45:54;;;;;;;10.02;4.88;;;27.00;50.60;;;;;;4870150;29;20044;-88